Time;durP1;ratioP1;P1;durP2;ratioP2;P2;SDS_P1;SDS_P2;PMS_P1;PMS_P2;Temp;Humidity;BMP_temperature;BMP_pressure;BME280_temperature;BME280_humidity;BME280_pressure;Samples;Min_cycle;Max_cycle;Signal;HPM_P1;HPM_P2
2022/05/04 00:01:30;;;;;;;3.80;3.60;;;;;;;12.25;88.06;96543.16;5052545;28;20226;-51
2022/05/04 00:03:56;;;;;;;3.17;2.97;;;;;;;12.17;89.06;96544.91;5052203;28;20231;-52
2022/05/04 00:06:24;;;;;;;4.10;3.80;;;;;;;12.16;91.28;96540.56;5051780;28;20701;-52
2022/05/04 00:08:51;;;;;;;4.23;3.40;;;;;;;12.11;91.58;96538.41;5052050;28;20203;-52
2022/05/04 00:11:17;;;;;;;3.77;3.47;;;;;;;12.11;92.14;96538.41;5051741;28;20200;-52
2022/05/04 00:13:45;;;;;;;3.23;3.03;;;;;;;12.14;90.06;96543.41;5052370;28;20207;-52
2022/05/04 00:16:12;;;;;;;3.20;3.00;;;;;;;12.10;91.28;96538.56;5051770;28;20203;-51
2022/05/04 00:18:39;;;;;;;3.53;3.07;;;;;;;12.05;90.91;96536.34;5052304;28;20245;-52
2022/05/04 00:21:07;;;;;;;3.33;3.10;;;;;;;11.98;90.80;96538.81;5050621;28;20215;-53
2022/05/04 00:23:36;;;;;;;4.60;3.30;;;;;;;12.00;90.89;96532.53;5042087;28;20552;-52
2022/05/04 00:26:03;;;;;;;3.67;3.37;;;;;;;11.93;92.05;96534.97;5041628;28;20577;-53
2022/05/04 00:28:30;;;;;;;3.30;3.10;;;;;;;11.91;91.66;96537.75;5051843;28;20218;-52
2022/05/04 00:31:00;;;;;;;3.43;3.23;;;;;;;11.89;91.07;96537.09;5051719;28;20229;-52
2022/05/04 00:33:27;;;;;;;3.83;3.53;;;;;;;11.82;90.30;96536.03;5051538;28;20195;-53
2022/05/04 00:35:53;;;;;;;3.73;3.43;;;;;;;11.77;91.46;96538.31;5052003;28;20202;-52
2022/05/04 00:38:20;;;;;;;4.30;3.57;;;;;;;11.75;91.53;96544.75;5050960;28;20207;-52
2022/05/04 00:40:47;;;;;;;3.60;3.30;;;;;;;11.75;90.26;96540.28;5051628;28;20227;-51
2022/05/04 00:43:25;;;;;;;3.40;3.20;;;;;;;11.65;90.91;96536.84;5051257;28;20549;-53
2022/05/04 00:45:53;;;;;;;5.43;3.37;;;;;;;11.61;90.49;96532.84;5051404;28;20203;-52
2022/05/04 00:48:21;;;;;;;3.40;3.10;;;;;;;11.59;89.84;96531.31;5051051;28;20645;-53
2022/05/04 00:50:49;;;;;;;3.97;3.60;;;;;;;11.49;89.56;96531.41;5051354;28;20198;-51
2022/05/04 00:53:17;;;;;;;3.20;2.93;;;;;;;11.42;89.64;96538.28;5051187;28;20203;-53
2022/05/04 00:55:43;;;;;;;3.23;3.03;;;;;;;11.32;89.40;96534.88;5051569;28;20215;-52
2022/05/04 01:00:54;;;;;;;3.60;2.97;;;;;;;11.10;91.48;96535.28;5051256;28;20231;-51
2022/05/04 01:03:23;;;;;;;4.13;3.07;;;;;;;11.06;91.33;96528.63;5051276;28;20206;-52
2022/05/04 01:05:49;;;;;;;3.43;3.23;;;;;;;11.12;89.55;96539.47;5051300;28;20191;-51
2022/05/04 01:08:17;;;;;;;3.37;3.07;;;;;;;11.04;89.75;96536.72;5050232;28;20234;-52
2022/05/04 01:10:46;;;;;;;5.07;3.40;;;;;;;11.01;90.21;96546.78;5040838;28;20218;-53
2022/05/04 01:13:12;;;;;;;3.70;3.40;;;;;;;10.99;91.01;96549.56;5051254;28;20249;-53
2022/05/04 01:15:39;;;;;;;3.43;3.23;;;;;;;10.90;91.38;96546.00;5050858;28;20226;-52
2022/05/04 01:18:06;;;;;;;3.30;3.03;;;;;;;10.92;91.23;96538.72;5050973;28;20209;-51
2022/05/04 01:20:34;;;;;;;3.83;3.27;;;;;;;10.83;90.40;96542.28;5050891;28;20650;-52
2022/05/04 01:23:02;;;;;;;4.67;3.20;;;;;;;10.82;90.41;96548.53;5050982;28;20297;-52
2022/05/04 01:25:29;;;;;;;3.53;3.23;;;;;;;10.66;91.32;96543.06;5051462;28;20226;-53
2022/05/04 01:27:59;;;;;;;3.50;3.20;;;;;;;10.74;89.43;96545.78;5040284;28;20204;-52
2022/05/04 01:30:27;;;;;;;3.77;3.40;;;;;;;10.59;90.02;96547.25;5051123;28;20205;-52
2022/05/04 01:32:53;;;;;;;3.33;3.03;;;;;;;10.55;92.13;96553.81;5050918;28;20230;-52
2022/05/04 01:35:21;;;;;;;3.23;3.00;;;;;;;10.43;91.27;96552.31;5067592;28;20195;-52
2022/05/04 01:37:50;;;;;;;3.73;3.43;;;;;;;10.45;92.15;96548.53;5070237;28;20201;-52
2022/05/04 01:40:18;;;;;;;3.73;3.40;;;;;;;10.45;91.68;96545.09;5070324;28;20208;-53
2022/05/04 01:42:45;;;;;;;3.40;3.10;;;;;;;10.44;91.98;96548.72;5056664;28;20230;-52
2022/05/04 01:45:12;;;;;;;3.70;3.40;;;;;;;10.33;92.03;96548.88;5064341;28;20210;-53
2022/05/04 01:47:40;;;;;;;4.57;3.60;;;;;;;10.25;92.52;96548.75;5059668;28;20199;-53
2022/05/04 01:50:09;;;;;;;3.60;3.27;;;;;;;10.26;91.46;96555.72;5054196;28;20195;-53
2022/05/04 01:52:38;;;;;;;4.27;3.87;;;;;;;10.19;91.99;96554.63;5055644;28;20635;-53
2022/05/04 01:55:05;;;;;;;4.83;4.00;;;;;;;10.15;94.26;96561.16;5055573;28;20207;-53
2022/05/04 01:57:33;;;;;;;3.70;3.40;;;;;;;10.16;93.16;96557.56;5054764;28;20215;-51
2022/05/04 01:59:59;;;;;;;3.77;3.57;;;;;;;10.17;93.21;96553.91;5054960;28;20206;-53
2022/05/04 02:02:27;;;;;;;3.97;3.67;;;;;;;10.15;93.42;96555.88;5054764;28;20249;-53
2022/05/04 02:04:55;;;;;;;5.13;4.00;;;;;;;10.12;94.29;96558.78;5054629;28;20246;-53
2022/05/04 02:07:22;;;;;;;4.80;4.17;;;;;;;10.16;93.68;96560.19;5055025;28;20214;-52
2022/05/04 02:09:49;;;;;;;4.13;3.83;;;;;;;10.18;94.64;96568.78;5055510;28;20313;-52
2022/05/04 02:12:16;;;;;;;5.03;4.37;;;;;;;10.14;94.92;96568.25;5064286;28;20207;-55
2022/05/04 02:14:44;;;;;;;5.00;4.60;;;;;;;10.14;95.35;96568.25;5075847;28;20203;-52
2022/05/04 02:17:10;;;;;;;5.70;4.57;;;;;;;10.17;96.84;96562.69;5078432;28;20203;-53
2022/05/04 02:19:37;;;;;;;8.13;5.27;;;;;;;10.17;96.24;96560.03;5076392;28;20199;-52
2022/05/04 02:22:05;;;;;;;4.80;4.50;;;;;;;10.19;96.27;96565.19;5071963;28;20227;-53
2022/05/04 02:24:33;;;;;;;5.67;5.07;;;;;;;10.25;96.55;96564.59;5073275;28;20210;-51
2022/05/04 02:27:00;;;;;;;5.57;5.07;;;;;;;10.14;96.77;96562.09;5075430;28;20186;-52
2022/05/04 02:29:26;;;;;;;5.53;5.07;;;;;;;10.13;97.24;96565.72;5069739;28;20535;-54
2022/05/04 02:31:59;;;;;;;4.97;4.67;;;;;;;10.11;97.98;96562.38;5056578;28;20195;-53
2022/05/04 02:34:26;;;;;;;5.13;4.63;;;;;;;10.13;98.05;96571.81;5056621;28;20199;-54
2022/05/04 02:39:37;;;;;;;5.30;4.90;;;;;;;10.13;98.77;96571.03;5056629;28;20217;-53
2022/05/04 02:42:06;;;;;;;4.97;4.57;;;;;;;10.12;98.04;96564.06;5054759;28;20215;-51
2022/05/04 02:44:35;;;;;;;5.60;5.10;;;;;;;10.12;98.90;96569.34;5053776;28;20212;-52
2022/05/04 02:47:04;;;;;;;5.33;4.83;;;;;;;10.07;97.90;96567.13;5053774;28;20208;-51
2022/05/04 02:49:31;;;;;;;4.90;4.60;;;;;;;10.08;98.99;96565.31;5053717;28;20201;-52
2022/05/04 02:51:57;;;;;;;4.70;4.40;;;;;;;10.05;99.09;96560.31;5053827;28;20647;-50
2022/05/04 02:54:24;;;;;;;5.03;4.70;;;;;;;10.02;99.53;96559.59;5053469;28;20665;-53
2022/05/04 02:56:51;;;;;;;5.43;4.93;;;;;;;10.02;99.23;96552.69;5053268;28;20218;-50
2022/05/04 02:59:17;;;;;;;5.17;4.67;;;;;;;9.98;99.40;96558.25;5051263;28;20232;-52
2022/05/04 03:04:33;;;;;;;5.47;4.87;;;;;;;9.88;98.88;96557.41;5053246;28;20373;-52
2022/05/04 03:07:00;;;;;;;5.13;4.73;;;;;;;9.89;100.00;96553.78;5053278;28;20209;-52
2022/05/04 03:09:27;;;;;;;4.93;4.63;;;;;;;9.84;99.84;96552.56;5053531;28;20198;-51
2022/05/04 03:11:56;;;;;;;5.70;4.97;;;;;;;9.84;100.00;96553.41;5053429;28;20568;-52
2022/05/04 03:14:23;;;;;;;6.20;5.80;;;;;;;9.85;99.53;96555.03;5053467;28;20203;-52
2022/05/04 03:16:52;;;;;;;5.57;5.17;;;;;;;9.83;100.00;96554.38;5053512;28;20211;-51
2022/05/04 03:19:19;;;;;;;5.90;5.50;;;;;;;9.82;99.91;96557.97;5053468;28;20213;-51
2022/05/04 03:21:48;;;;;;;5.93;5.53;;;;;;;9.76;99.87;96569.09;5054390;28;20226;-52
2022/05/04 03:24:14;;;;;;;5.83;5.27;;;;;;;9.78;100.00;96561.03;5046560;28;20586;-52
2022/05/04 03:26:41;;;;;;;5.70;5.27;;;;;;;9.83;99.61;96559.66;5056586;28;20204;-51
2022/05/04 03:29:09;;;;;;;5.70;5.30;;;;;;;9.81;100.00;96564.22;5053850;28;20541;-51
2022/05/04 03:31:36;;;;;;;5.63;5.23;;;;;;;9.78;100.00;96564.50;5053125;28;20206;-52
2022/05/04 03:34:03;;;;;;;5.80;5.40;;;;;;;9.71;99.94;96558.13;5053070;28;20231;-51
2022/05/04 03:36:31;;;;;;;6.03;5.53;;;;;;;9.69;100.00;96568.00;5053318;28;20207;-52
2022/05/04 03:39:00;;;;;;;6.03;5.53;;;;;;;9.65;100.00;96561.31;5052215;28;20636;-52
2022/05/04 03:41:27;;;;;;;6.20;5.70;;;;;;;9.63;99.41;96573.00;5053048;28;20250;-52
2022/05/04 03:43:54;;;;;;;6.80;5.93;;;;;;;9.66;100.00;96567.44;5052407;28;20195;-51
2022/05/04 03:46:22;;;;;;;6.57;5.97;;;;;;;9.71;99.57;96571.31;5052973;28;20207;-51
2022/05/04 03:48:51;;;;;;;6.23;5.43;;;;;;;9.61;100.00;96574.94;5058109;28;20203;-51
2022/05/04 03:51:19;;;;;;;6.07;5.67;;;;;;;9.65;100.00;96582.44;5076880;28;20202;-51
2022/05/04 03:53:45;;;;;;;7.30;6.10;;;;;;;9.65;100.00;96582.44;5071833;28;20196;-52
2022/05/04 03:56:16;;;;;;;6.70;6.10;;;;;;;9.68;100.00;96576.88;5065826;28;20207;-51
2022/05/04 03:58:43;;;;;;;6.87;6.27;;;;;;;9.71;100.00;96581.88;5052494;28;20207;-53
2022/05/04 04:01:10;;;;;;;6.97;6.47;;;;;;;9.68;99.70;96582.16;5052237;28;20217;-51
2022/05/04 04:03:36;;;;;;;7.30;6.60;;;;;;;9.72;100.00;96583.56;5049911;28;20238;-51
2022/05/04 04:06:03;;;;;;;7.33;6.70;;;;;;;9.73;100.00;96584.41;5052628;28;20211;-51
2022/05/04 04:08:30;;;;;;;7.60;6.97;;;;;;;9.79;100.00;96583.81;5051907;28;20235;-52
2022/05/04 04:10:58;;;;;;;7.17;6.67;;;;;;;9.85;100.00;96586.75;5050623;28;20233;-52
2022/05/04 04:13:26;;;;;;;7.47;6.70;;;;;;;9.83;100.00;96586.06;5051303;28;20200;-50
2022/05/04 04:15:54;;;;;;;7.20;6.60;;;;;;;9.84;100.00;96582.44;5052056;28;20206;-51
2022/05/04 04:18:21;;;;;;;7.60;6.83;;;;;;;9.87;100.00;96579.53;5051824;28;20717;-51
2022/05/04 04:23:32;;;;;;;7.80;7.07;;;;;;;9.87;100.00;96587.44;5051944;28;20218;-51
2022/05/04 04:25:59;;;;;;;8.43;7.47;;;;;;;10.00;100.00;96593.28;5051935;28;20585;-51
2022/05/04 04:28:28;;;;;;;7.53;6.93;;;;;;;10.10;100.00;96600.34;5051607;28;20222;-51
2022/05/04 04:30:54;;;;;;;7.23;6.60;;;;;;;10.16;100.00;96599.81;5051561;28;20530;-52
2022/05/04 04:33:24;;;;;;;8.03;7.30;;;;;;;10.16;100.00;96597.19;5051876;28;20203;-52
2022/05/04 04:35:52;;;;;;;8.47;7.77;;;;;;;10.13;100.00;96597.44;5051630;28;20289;-52
2022/05/04 04:38:18;;;;;;;7.50;7.00;;;;;;;10.19;100.00;96597.75;5050716;28;20238;-52
2022/05/04 04:40:45;;;;;;;7.03;6.43;;;;;;;10.19;100.00;96594.25;5051904;28;20201;-52
2022/05/04 04:43:13;;;;;;;8.13;7.27;;;;;;;10.20;100.00;96599.38;5051853;28;20227;-52
2022/05/04 04:45:46;;;;;;;7.17;6.67;;;;;;;10.24;100.00;96599.94;5051302;28;20244;-52
2022/05/04 04:48:17;;;;;;;7.97;7.27;;;;;;;10.26;100.00;96600.63;5051473;28;20217;-52
2022/05/04 04:50:43;;;;;;;8.13;7.17;;;;;;;10.32;99.90;96600.91;5051703;28;20461;-51
2022/05/04 04:53:11;;;;;;;8.03;7.23;;;;;;;10.40;100.00;96601.03;5051263;28;20202;-52
2022/05/04 04:55:38;;;;;;;8.23;7.43;;;;;;;10.44;100.00;96596.28;5051268;28;20226;-52
2022/05/04 04:58:04;;;;;;;7.70;7.10;;;;;;;10.48;100.00;96603.81;5050998;28;20639;-52
2022/05/04 05:00:31;;;;;;;7.73;7.10;;;;;;;10.53;100.00;96606.00;5051566;28;20626;-52
2022/05/04 05:03:00;;;;;;;7.90;7.27;;;;;;;10.66;100.00;96603.06;5050782;28;20213;-52
2022/05/04 05:05:27;;;;;;;7.30;6.70;;;;;;;10.74;99.96;96598.69;5051374;28;20238;-52
2022/05/04 05:07:55;;;;;;;8.17;7.47;;;;;;;10.76;99.37;96607.31;5051243;28;20202;-53
2022/05/04 05:10:21;;;;;;;7.97;7.27;;;;;;;10.83;99.15;96603.13;5051086;28;20205;-52
2022/05/04 05:12:51;;;;;;;8.03;7.40;;;;;;;10.92;99.26;96607.53;5051506;28;20207;-52
2022/05/04 05:18:03;;;;;;;8.63;7.73;;;;;;;11.06;99.21;96600.06;5051134;28;20629;-51
2022/05/04 05:20:30;;;;;;;7.93;7.30;;;;;;;11.15;99.41;96599.22;5051396;28;20203;-52
2022/05/04 05:22:57;;;;;;;8.77;7.60;;;;;;;11.20;98.55;96604.88;5050770;28;20667;-51
2022/05/04 05:25:24;;;;;;;8.47;7.10;;;;;;;11.19;96.96;96603.22;5050781;28;20214;-52
2022/05/04 05:27:51;;;;;;;8.80;8.00;;;;;;;11.24;95.67;96608.91;5051117;28;20225;-51
2022/05/04 05:30:17;;;;;;;8.07;7.37;;;;;;;11.26;95.73;96614.91;5051275;28;20520;-52
2022/05/04 05:32:44;;;;;;;8.27;7.50;;;;;;;11.34;94.77;96614.97;5051024;28;20199;-52
2022/05/04 05:35:12;;;;;;;8.87;7.90;;;;;;;11.35;94.16;96604.25;5050812;28;20552;-52
2022/05/04 05:37:38;;;;;;;8.50;7.70;;;;;;;11.43;94.83;96606.97;5051152;28;20203;-51
2022/05/04 05:40:07;;;;;;;9.20;8.30;;;;;;;11.48;95.66;96604.69;5050973;28;20215;-52
2022/05/04 05:42:35;;;;;;;8.40;7.60;;;;;;;11.57;94.67;96608.28;5040510;28;20230;-52
2022/05/04 05:45:01;;;;;;;8.57;7.77;;;;;;;11.59;94.71;96614.25;5040812;28;20289;-52
2022/05/04 05:47:28;;;;;;;8.63;7.93;;;;;;;11.66;94.88;96612.66;5051110;28;20519;-52
2022/05/04 05:49:55;;;;;;;8.47;7.63;;;;;;;11.68;94.79;96616.00;5050649;28;20213;-51
2022/05/04 05:52:24;;;;;;;8.40;7.70;;;;;;;11.72;93.79;96616.59;5050442;28;20550;-51
2022/05/04 05:54:51;;;;;;;8.37;7.67;;;;;;;11.81;94.07;96619.16;5050096;28;20614;-53
2022/05/04 05:57:18;;;;;;;8.57;7.93;;;;;;;11.91;94.08;96611.94;5051037;28;20241;-53
2022/05/04 05:59:44;;;;;;;9.97;9.10;;;;;;;11.96;93.36;96619.47;5050389;28;20569;-53
2022/05/04 06:02:11;;;;;;;8.80;7.97;;;;;;;12.06;93.85;96614.06;5052804;28;20557;-51
2022/05/04 06:04:38;;;;;;;8.63;7.73;;;;;;;12.13;93.84;96620.41;5057796;28;20686;-52
2022/05/04 06:07:05;;;;;;;12.07;9.53;;;;;;;12.24;91.89;96628.13;5059520;28;20214;-52
2022/05/04 06:09:33;;;;;;;23.03;15.03;;;;;;;12.39;92.31;96623.94;5053141;28;20393;-52
2022/05/04 06:12:02;;;;;;;27.77;17.60;;;;;;;12.55;91.88;96629.34;5049275;28;20202;-51
2022/05/04 06:14:28;;;;;;;10.77;9.30;;;;;;;12.65;90.82;96621.28;5048717;28;20210;-52
2022/05/04 06:16:55;;;;;;;9.47;8.57;;;;;;;12.75;90.19;96630.00;5050685;28;20203;-52
2022/05/04 06:19:21;;;;;;;10.17;8.13;;;;;;;12.83;88.60;96628.22;5050042;28;20278;-53
2022/05/04 06:21:48;;;;;;;9.50;8.00;;;;;;;13.03;87.03;96620.03;5050639;28;20199;-51
2022/05/04 06:24:15;;;;;;;8.87;8.17;;;;;;;13.39;85.84;96622.34;5049649;28;20230;-51
2022/05/04 06:26:43;;;;;;;9.10;8.40;;;;;;;13.94;84.47;96622.66;5050566;28;20211;-51
2022/05/04 06:29:11;;;;;;;9.10;8.33;;;;;;;14.34;81.85;96627.22;5050641;28;20624;-51
2022/05/04 06:34:22;;;;;;;7.97;7.30;;;;;;;14.61;78.42;96630.50;5050216;28;20280;-53
2022/05/04 06:36:49;;;;;;;8.30;7.50;;;;;;;14.35;78.10;96625.38;5049302;28;20225;-51
2022/05/04 06:39:16;;;;;;;8.10;7.30;;;;;;;14.77;78.76;96631.31;5053009;28;20203;-50
2022/05/04 06:41:44;;;;;;;9.03;8.20;;;;;;;15.22;75.95;96624.56;5052917;28;20662;-51
2022/05/04 06:44:11;;;;;;;8.30;7.50;;;;;;;15.94;74.40;96636.72;5053859;28;20223;-52
2022/05/04 06:46:41;;;;;;;43.30;11.70;;;;;;;16.38;71.47;96628.88;5053341;28;20542;-52
2022/05/04 06:49:09;;;;;;;14.93;8.30;;;;;;;16.73;69.73;96638.13;5053847;28;20290;-51
2022/05/04 06:51:35;;;;;;;19.80;9.00;;;;;;;17.10;68.94;96634.59;5043182;28;20196;-51
2022/05/04 06:54:02;;;;;;;15.13;8.50;;;;;;;17.21;66.24;96634.13;5053452;28;20219;-52
2022/05/04 06:56:28;;;;;;;10.70;7.13;;;;;;;17.56;65.60;96636.09;5053536;28;20218;-49
2022/05/04 06:58:56;;;;;;;7.80;7.10;;;;;;;18.11;65.52;96631.97;5053556;28;20215;-52
2022/05/04 07:01:22;;;;;;;8.23;7.00;;;;;;;18.47;62.23;96631.91;5053073;28;20200;-52
2022/05/04 07:03:49;;;;;;;8.25;7.05;;;;;;;18.47;61.47;96635.41;5053104;28;20230;-51
2022/05/04 07:06:16;;;;;;;7.45;6.78;;;;;;;18.80;63.23;96635.75;5053575;28;20211;-51
2022/05/04 07:08:43;;;;;;;7.80;7.20;;;;;;;18.73;59.34;96624.16;5053790;28;20209;-51
2022/05/04 07:11:09;;;;;;;7.53;6.82;;;;;;;19.05;59.69;96622.72;5052925;28;20210;-51
2022/05/04 07:13:36;;;;;;;7.10;6.50;;;;;;;19.28;59.05;96623.28;5052453;28;20624;-53
2022/05/04 07:16:04;;;;;;;8.07;6.63;;;;;;;19.56;58.10;96617.88;5053006;28;20543;-51
2022/05/04 07:18:34;;;;;;;7.30;6.80;;;;;;;19.57;56.90;96624.91;5052726;28;20204;-51
2022/05/04 07:21:01;;;;;;;7.35;6.75;;;;;;;19.32;59.23;96619.16;5052595;28;20635;-52
2022/05/04 07:23:28;;;;;;;7.38;6.68;;;;;;;19.64;57.78;96617.72;5052605;28;20593;-51
2022/05/04 07:25:54;;;;;;;7.00;6.40;;;;;;;19.83;58.09;96616.97;5052752;28;20207;-52
2022/05/04 07:28:21;;;;;;;6.90;6.28;;;;;;;19.91;56.61;96621.34;5051724;28;20294;-52
2022/05/04 07:30:48;;;;;;;6.70;6.20;;;;;;;19.90;58.11;96623.19;5053048;28;20222;-52
2022/05/04 07:33:18;;;;;;;7.30;6.70;;;;;;;20.28;56.32;96631.56;5052582;28;20674;-51
2022/05/04 07:35:45;;;;;;;10.40;7.10;;;;;;;20.62;55.60;96617.97;5053102;28;20203;-51
2022/05/04 07:38:11;;;;;;;7.72;6.95;;;;;;;20.70;53.64;96622.31;5051742;28;20211;-52
2022/05/04 07:43:22;;;;;;;7.90;6.93;;;;;;;21.02;53.26;96620.66;5052085;28;20226;-51
2022/05/04 07:45:49;;;;;;;7.10;6.50;;;;;;;21.23;53.31;96621.25;5053069;28;20254;-52
2022/05/04 07:48:16;;;;;;;6.63;6.03;;;;;;;21.38;51.85;96609.44;5051844;28;20208;-52
2022/05/04 07:50:43;;;;;;;7.93;6.22;;;;;;;21.56;53.15;96610.44;5052317;28;20635;-52
2022/05/04 07:53:09;;;;;;;7.15;6.57;;;;;;;21.70;52.15;96608.50;5052287;28;20204;-52
2022/05/04 07:55:36;;;;;;;15.68;7.28;;;;;;;21.94;50.93;96623.97;5052404;28;20210;-52
2022/05/04 07:58:03;;;;;;;7.68;5.68;;;;;;;21.62;49.67;96623.03;5053283;28;20211;-52
2022/05/04 08:06:01;;;;;;;4.00;3.70;;;;;;;22.81;46.00;96617.84;5051527;28;20619;-53
2022/05/04 08:08:28;;;;;;;4.95;4.38;;;;;;;22.57;47.69;96626.69;5052983;28;20252;-52
2022/05/04 08:10:54;;;;;;;7.35;6.75;;;;;;;22.23;48.66;96619.88;5053908;28;20218;-52
2022/05/04 08:13:21;;;;;;;6.38;4.40;;;;;;;23.13;45.28;96621.28;5053644;28;20199;-52
2022/05/04 08:15:47;;;;;;;4.30;3.90;;;;;;;23.35;42.57;96625.19;5058824;28;20192;-51
2022/05/04 08:18:14;;;;;;;4.20;3.90;;;;;;;23.02;42.89;96613.94;5060027;28;20222;-52
2022/05/04 08:20:40;;;;;;;4.28;3.97;;;;;;;22.23;44.88;96622.56;5056166;28;20293;-53
2022/05/04 08:23:09;;;;;;;4.25;3.88;;;;;;;22.04;44.10;96623.50;5051794;28;20231;-51
2022/05/04 08:25:36;;;;;;;6.03;4.07;;;;;;;21.35;46.47;96621.44;5051674;28;20666;-51
2022/05/04 08:28:02;;;;;;;4.15;3.85;;;;;;;21.35;50.84;96621.44;5051519;28;20210;-52
2022/05/04 08:30:29;;;;;;;4.25;3.95;;;;;;;21.75;46.11;96622.97;5051560;28;20199;-52
2022/05/04 08:32:55;;;;;;;4.45;4.15;;;;;;;21.75;46.97;96619.47;5051342;28;20616;-53
2022/05/04 08:35:22;;;;;;;4.28;3.97;;;;;;;21.80;46.57;96619.63;5051943;28;20211;-51
2022/05/04 08:37:49;;;;;;;4.72;4.32;;;;;;;21.49;45.76;96623.06;5051153;28;20199;-52
2022/05/04 08:40:17;;;;;;;4.82;4.30;;;;;;;21.37;46.11;96622.06;5050915;28;20545;-51
2022/05/04 08:42:45;;;;;;;4.22;3.92;;;;;;;21.69;48.62;96621.13;5051385;28;20531;-52
2022/05/04 08:45:12;;;;;;;5.68;4.38;;;;;;;21.92;45.87;96622.53;5040964;28;20272;-52
2022/05/04 08:47:40;;;;;;;4.80;4.38;;;;;;;21.86;47.53;96616.09;5049780;28;20219;-51
2022/05/04 08:50:14;;;;;;;4.68;4.38;;;;;;;22.12;45.53;96609.78;5051400;28;20199;-51
2022/05/04 08:52:51;;;;;;;4.80;3.80;;;;;;;22.03;45.01;96606.53;5051437;28;20206;-53
2022/05/04 08:55:19;;;;;;;4.32;4.00;;;;;;;22.42;46.42;96605.47;5051103;28;20271;-53
2022/05/04 08:57:46;;;;;;;3.83;3.53;;;;;;;22.79;47.73;96596.47;5051149;28;20195;-52
2022/05/04 09:00:14;;;;;;;4.63;4.22;;;;;;;22.84;43.31;96603.09;5050629;28;20223;-52
2022/05/04 09:02:40;;;;;;;4.75;4.35;;;;;;;22.66;42.53;96601.13;5051179;28;20191;-52
2022/05/04 09:05:19;;;;;;;4.53;4.22;;;;;;;22.68;48.50;96599.88;5050540;28;20253;-53
2022/05/04 09:07:48;;;;;;;8.18;4.18;;;;;;;23.02;45.89;96589.66;5050876;28;20544;-53
2022/05/04 09:10:20;;;;;;;4.88;4.47;;;;;;;23.04;42.52;96593.75;5050766;28;20257;-54
2022/05/04 09:12:48;;;;;;;4.47;4.00;;;;;;;23.46;44.32;96593.97;5050377;28;20203;-53
2022/05/04 09:15:20;;;;;;;4.75;4.35;;;;;;;23.14;42.14;96590.53;5050116;28;20211;-52
2022/05/04 09:17:47;;;;;;;4.63;4.32;;;;;;;23.48;45.33;96581.09;5050481;28;20211;-52
2022/05/04 09:22:57;;;;;;;4.40;4.10;;;;;;;23.87;44.71;96586.00;5050637;28;20202;-52
2022/05/04 09:25:26;;;;;;;4.28;3.97;;;;;;;24.04;43.72;96588.91;5050598;28;20203;-53
2022/05/04 09:27:52;;;;;;;4.43;4.13;;;;;;;24.34;41.81;96595.13;5049777;28;20210;-52
2022/05/04 09:30:26;;;;;;;4.80;4.50;;;;;;;24.01;41.48;96575.84;5050699;28;20535;-52
2022/05/04 09:32:53;;;;;;;5.30;4.90;;;;;;;23.51;41.20;96589.56;5050861;28;20237;-52
2022/05/04 09:35:19;;;;;;;4.60;4.30;;;;;;;23.65;41.62;96580.25;5050711;28;20217;-52
2022/05/04 09:46:04;;;;;;;4.55;4.25;;;;;;;22.83;45.43;96574.47;5050667;28;20239;-54
2022/05/04 09:48:31;;;;;;;4.28;3.97;;;;;;;23.40;44.74;96584.06;5051179;28;20211;-53
2022/05/04 09:51:01;;;;;;;4.90;4.45;;;;;;;23.25;40.09;96568.22;5051665;28;20195;-51
2022/05/04 09:53:29;;;;;;;5.28;4.75;;;;;;;23.61;41.65;96570.13;5051442;28;20187;-54
2022/05/04 09:55:57;;;;;;;4.07;3.78;;;;;;;23.56;40.58;96568.09;5050233;28;20199;-54
2022/05/04 09:58:26;;;;;;;4.50;4.00;;;;;;;22.99;41.98;96563.91;5052728;28;20231;-52
2022/05/04 10:00:53;;;;;;;4.80;4.40;;;;;;;22.94;42.00;96558.38;5051943;28;20615;-51
2022/05/04 10:03:20;;;;;;;4.82;4.47;;;;;;;23.42;43.05;96563.91;5051610;28;20227;-52
2022/05/04 10:05:47;;;;;;;4.88;4.47;;;;;;;23.33;42.93;96561.72;5052205;28;20303;-51
2022/05/04 10:08:15;;;;;;;5.25;4.78;;;;;;;23.43;43.47;96560.16;5052229;28;20206;-52
2022/05/04 10:10:41;;;;;;;4.55;4.25;;;;;;;23.65;42.64;96553.25;5052152;28;20208;-53
2022/05/04 10:13:09;;;;;;;4.72;4.32;;;;;;;24.19;42.16;96551.53;5054409;28;20199;-55
2022/05/04 10:15:37;;;;;;;5.63;4.30;;;;;;;24.30;43.38;96548.03;5055838;28;20211;-53
2022/05/04 10:18:07;;;;;;;5.28;4.78;;;;;;;24.14;42.81;96551.38;5055036;28;20540;-53
2022/05/04 10:20:39;;;;;;;4.82;4.43;;;;;;;24.52;41.31;96546.41;5056383;28;20203;-54
2022/05/04 10:23:09;;;;;;;5.28;3.60;;;;;;;24.76;40.64;96550.78;5055722;28;20198;-52
2022/05/04 10:25:36;;;;;;;4.70;4.30;;;;;;;24.85;37.76;96534.25;5054948;28;20210;-53
2022/05/04 10:28:09;;;;;;;4.32;4.03;;;;;;;24.73;38.70;96529.63;5054523;28;20211;-53
2022/05/04 10:30:46;;;;;;;5.38;4.00;;;;;;;24.79;38.12;96527.88;5054852;28;20209;-51
2022/05/04 10:33:12;;;;;;;4.20;3.90;;;;;;;24.63;39.73;96534.78;5053997;28;20306;-52
2022/05/04 10:35:42;;;;;;;4.47;4.07;;;;;;;24.77;38.29;96522.69;5053510;28;20233;-51
2022/05/04 10:38:19;;;;;;;4.53;4.22;;;;;;;24.56;39.72;96528.66;5052990;28;20211;-53
2022/05/04 10:40:54;;;;;;;4.38;3.97;;;;;;;24.86;39.22;96528.63;5053878;28;20205;-52
2022/05/04 10:43:35;;;;;;;4.38;3.97;;;;;;;24.56;40.75;96525.97;5053867;28;20202;-52
2022/05/04 10:46:09;;;;;;;6.38;4.40;;;;;;;24.02;41.20;96521.56;5053489;28;20199;-52
2022/05/04 10:48:36;;;;;;;4.40;4.10;;;;;;;23.78;39.93;96517.97;5052893;28;20307;-52
2022/05/04 10:51:11;;;;;;;4.70;4.30;;;;;;;24.22;40.91;96521.34;5053538;28;20203;-52
2022/05/04 10:53:42;;;;;;;4.95;4.55;;;;;;;23.84;38.96;96529.75;5053800;28;20613;-51
2022/05/04 10:56:10;;;;;;;5.00;4.30;;;;;;;24.08;39.49;96514.44;5053267;28;20207;-50
2022/05/04 10:58:39;;;;;;;4.57;3.83;;;;;;;24.30;36.98;96507.50;5053594;28;20506;-51
2022/05/04 11:01:14;;;;;;;3.90;3.60;;;;;;;24.39;38.05;96511.50;5043473;28;20281;-51
2022/05/04 11:04:08;;;;;;;4.32;4.03;;;;;;;24.59;40.16;96517.38;5053286;28;20239;-50
2022/05/04 11:06:36;;;;;;;4.70;4.40;;;;;;;24.00;40.41;96512.06;5037642;28;20207;-50
2022/05/04 11:09:12;;;;;;;4.60;4.20;;;;;;;23.84;37.93;96518.13;5053048;28;20203;-52
2022/05/04 11:11:40;;;;;;;4.10;3.80;;;;;;;23.60;40.09;96512.59;5052928;28;20202;-50
2022/05/04 11:14:08;;;;;;;4.22;3.63;;;;;;;23.28;39.08;96503.00;5053245;28;20207;-50
2022/05/04 11:16:36;;;;;;;3.97;3.67;;;;;;;23.20;38.09;96496.03;5052802;28;20262;-50
2022/05/04 11:19:04;;;;;;;4.50;3.90;;;;;;;23.29;38.24;96499.28;5052396;28;20647;-50
2022/05/04 11:21:32;;;;;;;4.30;3.88;;;;;;;22.95;37.08;96486.41;5052779;28;20211;-52
2022/05/04 11:24:00;;;;;;;3.95;3.70;;;;;;;22.78;40.13;96492.34;5052454;28;20302;-53
2022/05/04 11:26:28;;;;;;;3.47;3.17;;;;;;;22.96;41.64;96496.94;5052990;28;20203;-51
2022/05/04 11:28:55;;;;;;;3.25;2.92;;;;;;;23.60;40.68;96496.41;5052256;28;20303;-53
2022/05/04 11:31:22;;;;;;;3.72;3.42;;;;;;;24.11;38.00;96495.91;5053012;28;20203;-54
2022/05/04 11:33:50;;;;;;;3.90;3.60;;;;;;;23.99;37.99;96489.63;5052757;28;20207;-50
2022/05/04 11:36:21;;;;;;;3.70;3.40;;;;;;;24.57;37.53;96492.47;5052736;28;20203;-53
2022/05/04 11:38:48;;;;;;;3.05;2.75;;;;;;;24.95;36.96;96480.38;5052267;28;20207;-53
2022/05/04 11:41:16;;;;;;;3.70;3.38;;;;;;;25.08;36.15;96480.94;5052265;28;20207;-53
2022/05/04 11:43:43;;;;;;;3.35;3.05;;;;;;;25.37;33.58;96481.81;5052258;28;20215;-52
2022/05/04 11:46:11;;;;;;;3.25;3.05;;;;;;;25.55;29.91;96473.53;5052330;28;20218;-53
2022/05/04 11:48:39;;;;;;;3.08;2.88;;;;;;;26.05;31.54;96472.84;5052878;28;20211;-53
2022/05/04 11:51:07;;;;;;;3.58;3.17;;;;;;;25.90;34.16;96470.69;5052680;28;20191;-53
2022/05/04 11:53:34;;;;;;;3.63;2.65;;;;;;;25.96;32.36;96464.31;5052089;28;20220;-55
2022/05/04 11:56:03;;;;;;;2.80;2.55;;;;;;;25.74;33.01;96460.66;5052363;28;20196;-52
2022/05/04 11:58:30;;;;;;;2.95;2.70;;;;;;;25.07;33.44;96468.47;5051982;28;20680;-54
2022/05/04 12:00:57;;;;;;;4.97;3.05;;;;;;;24.87;32.88;96469.94;5051176;28;20203;-53
2022/05/04 12:03:25;;;;;;;3.08;2.83;;;;;;;24.52;33.06;96470.72;5051520;28;20210;-53
2022/05/04 12:05:52;;;;;;;3.05;2.72;;;;;;;23.94;36.68;96470.59;5052082;28;20218;-53
2022/05/04 12:08:21;;;;;;;2.90;2.70;;;;;;;23.94;34.65;96472.47;5052143;28;20203;-53
2022/05/04 12:10:49;;;;;;;3.25;2.95;;;;;;;23.52;35.24;96472.47;5052258;28;20203;-54